Time;durP1;ratioP1;P1;durP2;ratioP2;P2;SDS_P1;SDS_P2;PMS_P1;PMS_P2;Temp;Humidity;BMP_temperature;BMP_pressure;BME280_temperature;BME280_humidity;BME280_pressure;Samples;Min_cycle;Max_cycle;Signal;HPM_P1;HPM_P2
2021/05/17 00:04:29;;;;;;;10.73;7.83;;;;;;;8.47;76.39;98325.38;528964;1098;116470;-61
2021/05/17 00:14:35;;;;;;;10.33;8.37;;;;;;;8.36;76.32;98326.16;528879;1098;116498;-60
2021/05/17 00:24:41;;;;;;;7.73;7.03;;;;;;;8.24;76.62;98320.09;529571;1098;117325;-60
2021/05/17 00:34:46;;;;;;;9.27;7.47;;;;;;;8.21;77.24;98316.86;528897;1098;168751;-59
2021/05/17 00:44:52;;;;;;;8.30;7.47;;;;;;;8.13;77.39;98325.28;528926;1098;116445;-60
2021/05/17 00:54:57;;;;;;;8.73;7.67;;;;;;;8.02;77.10;98326.06;529187;1098;116728;-60
2021/05/17 01:05:03;;;;;;;8.13;7.33;;;;;;;7.93;77.70;98332.81;529655;1098;116246;-59
2021/05/17 01:15:10;;;;;;;9.43;8.27;;;;;;;7.92;77.74;98325.10;529431;1098;116801;-59
2021/05/17 01:25:17;;;;;;;11.60;8.77;;;;;;;7.93;78.57;98319.74;528974;1098;116814;-60
2021/05/17 01:35:23;;;;;;;11.10;9.20;;;;;;;7.91;78.80;98308.58;528901;1098;116643;-59
2021/05/17 01:45:29;;;;;;;10.27;9.23;;;;;;;7.85;78.89;98299.41;529676;1098;116059;-59
2021/05/17 01:55:35;;;;;;;11.13;9.63;;;;;;;7.83;79.13;98297.84;528910;1098;116081;-59
2021/05/17 02:05:41;;;;;;;10.53;9.13;;;;;;;7.78;79.05;98305.20;528918;1098;117570;-59
2021/05/17 02:15:49;;;;;;;10.73;9.53;;;;;;;7.81;79.40;98302.35;529634;1098;117243;-59
2021/05/17 02:25:55;;;;;;;11.23;9.03;;;;;;;7.88;79.37;98315.80;528917;1098;116409;-59
2021/05/17 02:36:00;;;;;;;8.87;7.97;;;;;;;8.02;78.90;98322.63;528909;1098;117762;-59
2021/05/17 02:46:06;;;;;;;11.93;10.63;;;;;;;8.24;79.16;98319.24;528993;1098;117354;-59
2021/05/17 02:56:14;;;;;;;13.65;11.93;;;;;;;8.52;79.11;98328.48;528906;1098;116749;-59
2021/05/17 03:06:31;;;;;;;11.23;9.60;;;;;;;8.95;79.11;98315.68;529611;1098;117448;-59
2021/05/17 03:16:40;;;;;;;11.35;10.25;;;;;;;9.35;77.87;98325.66;528899;1098;116747;-60
2021/05/17 03:26:45;;;;;;;11.40;10.30;;;;;;;9.55;77.16;98330.26;528686;1098;117434;-59
2021/05/17 03:36:50;;;;;;;12.03;10.23;;;;;;;9.79;76.69;98344.00;529434;1098;117093;-59
2021/05/17 03:46:56;;;;;;;12.50;9.05;;;;;;;9.70;76.53;98364.89;528934;1098;116563;-60
2021/05/17 03:57:03;;;;;;;11.90;10.73;;;;;;;9.76;76.17;98361.77;528840;1098;116368;-60
2021/05/17 04:07:21;;;;;;;9.80;9.00;;;;;;;14.08;77.57;98359.70;529001;1098;116754;-60
2021/05/17 04:17:44;;;;;;;9.23;8.07;;;;;;;16.87;64.74;98383.06;528887;1098;117077;-60
2021/05/17 04:27:49;;;;;;;10.03;7.47;;;;;;;13.90;66.22;98373.70;529637;1098;116766;-60
2021/05/17 04:37:54;;;;;;;10.20;7.63;;;;;;;14.92;67.68;98380.48;528975;1098;117519;-60
2021/05/17 04:47:59;;;;;;;7.50;6.70;;;;;;;21.92;61.09;98351.36;528933;1098;116108;-60
2021/05/17 04:58:04;;;;;;;7.37;5.43;;;;;;;26.60;55.57;98338.66;528902;1098;117809;-60
2021/05/17 05:08:09;;;;;;;8.10;5.03;;;;;;;33.88;45.07;98336.25;528970;1098;116352;-60
2021/05/17 05:18:14;;;;;;;6.27;3.43;;;;;;;37.82;36.37;98336.71;529163;1098;116027;-60
2021/05/17 05:28:21;;;;;;;4.80;2.65;;;;;;;39.91;30.61;98336.23;528862;1098;117526;-59
2021/05/17 05:38:26;;;;;;;5.28;3.10;;;;;;;39.65;27.43;98320.55;528886;1098;117025;-61
2021/05/17 05:48:31;;;;;;;3.65;2.50;;;;;;;34.81;27.61;98321.86;529617;1098;116218;-61
2021/05/17 05:58:36;;;;;;;3.67;2.70;;;;;;;34.41;27.91;98315.70;528940;1098;116694;-61
2021/05/17 06:08:43;;;;;;;2.68;2.23;;;;;;;40.41;25.07;98319.50;528873;1098;117231;-61
2021/05/17 06:18:49;;;;;;;4.15;1.80;;;;;;;46.17;21.27;98304.67;529640;1098;117434;-60
2021/05/17 06:28:55;;;;;;;3.98;2.00;;;;;;;49.43;18.29;98313.01;528919;1098;118324;-60
2021/05/17 06:39:02;;;;;;;2.68;1.85;;;;;;;50.97;15.82;98301.58;528814;1098;116482;-66
2021/05/17 06:49:08;;;;;;;2.58;2.38;;;;;;;53.14;14.12;98308.88;528867;1098;117395;-66
2021/05/17 06:59:14;;;;;;;;;;;;;;;54.37;12.23;98303.52;528923;1098;117205;-67
2021/05/17 07:19:42;;;;;;;4.98;4.78;;;;;;;52.69;11.03;98294.50;528692;1098;117124;-68
2021/05/17 07:29:46;;;;;;;;;;;;;;;47.48;11.39;98292.72;529065;1097;116236;-62
2021/05/17 07:39:51;;;;;;;2.90;2.50;;;;;;;47.18;12.26;98285.20;530190;1098;103467;-60
2021/05/17 07:49:56;;;;;;;2.43;1.73;;;;;;;43.85;13.14;98277.34;528902;1098;116073;-61
2021/05/17 08:00:01;;;;;;;4.08;2.05;;;;;;;40.11;14.61;98267.17;528936;1098;116398;-64
2021/05/17 08:10:09;;;;;;;1.35;1.25;;;;;;;34.95;16.90;98280.26;528887;1098;116422;-64
2021/05/17 08:20:15;;;;;;;3.20;1.70;;;;;;;30.95;20.58;98256.54;529001;1098;116243;-61
2021/05/17 08:30:23;;;;;;;2.27;1.30;;;;;;;28.94;21.94;98271.64;529706;1098;117175;-61
2021/05/17 08:40:28;;;;;;;3.23;1.20;;;;;;;26.20;25.19;98280.97;528765;1098;116872;-61
2021/05/17 08:50:34;;;;;;;2.28;1.03;;;;;;;27.45;24.69;98279.00;528858;1098;117481;-61
2021/05/17 09:00:40;;;;;;;1.63;0.90;;;;;;;27.92;23.78;98264.48;529688;1098;116791;-63
2021/05/17 09:10:46;;;;;;;;;;;;;;;27.67;23.41;98264.87;529016;1098;116357;-61
2021/05/17 09:20:53;;;;;;;3.00;1.47;;;;;;;26.98;24.20;98270.03;529560;1098;101898;-63
2021/05/17 09:31:04;;;;;;;2.68;1.48;;;;;;;26.87;24.62;98265.50;528998;1097;116018;-65
2021/05/17 09:41:10;;;;;;;1.20;0.87;;;;;;;26.17;25.54;98267.97;528913;1098;116228;-66
2021/05/17 09:51:16;;;;;;;1.43;1.13;;;;;;;25.70;26.32;98256.09;529645;1098;115985;-61
2021/05/17 10:01:28;;;;;;;4.98;1.28;;;;;;;24.63;26.85;98264.39;529038;1098;116352;-65
2021/05/17 10:11:33;;;;;;;1.90;0.90;;;;;;;23.42;28.58;98254.64;529007;1098;116618;-65
2021/05/17 10:21:38;;;;;;;4.80;2.15;;;;;;;22.11;30.53;98263.40;529612;1098;116547;-61
2021/05/17 10:31:54;;;;;;;1.73;0.93;;;;;;;21.40;31.91;98268.20;528964;1098;117275;-61
2021/05/17 10:42:19;;;;;;;3.90;1.50;;;;;;;20.35;36.90;98291.25;528894;1098;116890;-64
2021/05/17 10:52:25;;;;;;;2.23;1.93;;;;;;;19.38;40.09;98293.41;528970;1098;117723;-58
2021/05/17 11:02:31;;;;;;;1.78;1.68;;;;;;;18.72;41.72;98301.14;528906;1098;116409;-64
2021/05/17 11:13:10;;;;;;;2.05;0.90;;;;;;;18.91;43.22;98304.27;529621;1098;116433;-59
2021/05/17 11:23:19;;;;;;;3.33;1.63;;;;;;;19.11;43.68;98301.89;528945;1098;115839;-58
2021/05/17 11:33:24;;;;;;;1.60;1.07;;;;;;;19.74;44.19;98300.54;529609;1098;116531;-61
2021/05/17 11:43:32;;;;;;;5.73;1.30;;;;;;;20.09;43.67;98308.69;528934;1098;116264;-61
2021/05/17 11:53:45;;;;;;;3.93;1.25;;;;;;;19.95;43.37;98307.73;528918;1098;116295;-65
2021/05/17 12:03:50;;;;;;;1.03;0.97;;;;;;;19.68;44.30;98295.95;529648;1098;116500;-60
2021/05/17 12:14:05;;;;;;;2.93;0.97;;;;;;;20.31;44.38;98303.33;528948;1098;116533;-60
2021/05/17 12:24:25;;;;;;;2.27;0.90;;;;;;;20.78;43.28;98298.32;529639;1098;117579;-60
2021/05/17 12:34:30;;;;;;;6.28;1.85;;;;;;;20.22;43.08;98305.31;528933;1098;116271;-59
2021/05/17 12:44:39;;;;;;;2.47;1.33;;;;;;;19.24;44.23;98300.40;528980;1098;116646;-60
2021/05/17 12:55:04;;;;;;;2.33;0.80;;;;;;;18.51;46.58;98307.17;529653;1098;116451;-58
2021/05/17 13:05:10;;;;;;;2.07;0.93;;;;;;;18.58;48.26;98305.45;528950;1098;116117;-57
2021/05/17 13:15:20;;;;;;;1.23;0.93;;;;;;;18.16;49.23;98302.33;529693;1098;115803;-59
2021/05/17 13:36:05;;;;;;;1.90;1.28;;;;;;;17.21;51.33;98296.30;527963;1098;116976;-58
2021/05/17 13:46:11;;;;;;;1.83;1.43;;;;;;;16.85;52.56;98289.59;528890;1098;119000;-59
2021/05/17 13:56:16;;;;;;;8.20;1.48;;;;;;;16.58;53.41;98283.72;528858;1098;115972;-60
2021/05/17 14:06:21;;;;;;;1.00;0.90;;;;;;;17.35;52.93;98273.52;529721;1098;116550;-59
2021/05/17 14:16:26;;;;;;;2.35;1.13;;;;;;;17.45;52.17;98283.89;528990;1098;115887;-57
2021/05/17 14:26:31;;;;;;;3.23;1.70;;;;;;;17.40;52.17;98294.22;528964;1098;116669;-58
2021/05/17 14:36:37;;;;;;;3.35;1.23;;;;;;;17.34;53.43;98282.48;529632;1098;115844;-61
2021/05/17 14:46:42;;;;;;;1.47;1.33;;;;;;;17.37;54.08;98282.13;528956;1098;116146;-62
2021/05/17 14:56:47;;;;;;;3.58;1.50;;;;;;;17.09;53.35;98304.63;528914;1098;115993;-59
2021/05/17 15:06:52;;;;;;;1.70;1.43;;;;;;;16.83;54.17;98312.00;529682;1098;116179;-64
2021/05/17 15:16:57;;;;;;;3.57;1.53;;;;;;;16.66;55.34;98315.52;529623;1098;116697;-63
2021/05/17 15:27:02;;;;;;;1.53;1.25;;;;;;;16.37;56.18;98322.16;528871;1098;116505;-58
2021/05/17 15:37:07;;;;;;;2.73;1.20;;;;;;;15.73;57.66;98332.53;528843;1098;117168;-60
2021/05/17 15:47:12;;;;;;;2.00;1.60;;;;;;;15.20;59.27;98336.18;528892;1098;116818;-65
2021/05/17 15:57:18;;;;;;;3.33;2.17;;;;;;;14.40;60.29;98327.45;529627;1098;116471;-63
2021/05/17 16:07:24;;;;;;;2.53;1.95;;;;;;;14.07;62.29;98345.66;519807;1098;10001252;-59
2021/05/17 16:18:06;;;;;;;2.53;1.80;;;;;;;13.87;63.11;98352.91;528843;1098;116486;-60
2021/05/17 16:28:11;;;;;;;3.90;2.30;;;;;;;13.49;64.24;98355.64;528886;1098;116168;-60
2021/05/17 16:38:16;;;;;;;2.68;2.18;;;;;;;13.43;64.86;98377.31;528963;1098;116614;-58
2021/05/17 16:48:21;;;;;;;2.63;1.98;;;;;;;12.97;65.63;98377.20;529680;1098;116648;-58
2021/05/17 16:58:26;;;;;;;3.70;1.50;;;;;;;12.72;66.71;98375.07;528895;1098;116265;-61
2021/05/17 17:08:34;;;;;;;7.80;7.00;;;;;;;12.68;67.76;98386.84;528897;1098;117223;-63
2021/05/17 17:18:39;;;;;;;1.73;1.60;;;;;;;12.47;68.13;98373.86;529634;1098;116255;-62
2021/05/17 17:28:44;;;;;;;1.70;1.60;;;;;;;12.16;69.27;98361.69;528910;1097;117791;-61
2021/05/17 17:38:50;;;;;;;1.40;1.30;;;;;;;11.88;69.77;98352.79;528789;1098;116479;-66
2021/05/17 17:49:05;;;;;;;3.57;1.83;;;;;;;11.63;70.15;98344.46;529599;1098;115947;-62
2021/05/17 17:59:11;;;;;;;2.37;1.53;;;;;;;11.54;71.18;98348.70;528872;1098;117405;-59
2021/05/17 18:09:18;;;;;;;1.57;1.40;;;;;;;11.46;71.39;98340.69;529589;1098;116508;-66
2021/05/17 18:19:23;;;;;;;1.43;1.33;;;;;;;11.44;71.69;98343.44;528843;1098;116353;-68
2021/05/17 18:29:30;;;;;;;1.85;1.70;;;;;;;11.32;72.10;98344.52;528897;1098;116117;-66
2021/05/17 18:39:35;;;;;;;2.07;1.80;;;;;;;11.21;72.62;98343.66;529629;1098;118157;-66
2021/05/17 18:49:40;;;;;;;2.10;1.77;;;;;;;11.21;73.10;98348.09;528892;1098;117187;-65
2021/05/17 18:59:45;;;;;;;4.07;2.73;;;;;;;11.20;73.58;98347.25;519956;1098;10001311;-63
2021/05/17 19:09:53;;;;;;;2.53;2.30;;;;;;;11.07;73.70;98347.46;529522;1098;116162;-64
2021/05/17 19:19:58;;;;;;;3.00;2.00;;;;;;;11.04;73.98;98336.42;529571;1098;116542;-65
2021/05/17 19:30:03;;;;;;;3.00;2.20;;;;;;;10.98;74.00;98344.81;528852;1098;117013;-65
2021/05/17 19:40:11;;;;;;;1.77;1.67;;;;;;;11.11;74.54;98369.05;528748;1098;116999;-64
2021/05/17 19:50:19;;;;;;;4.60;2.17;;;;;;;11.16;74.39;98364.25;528893;1098;117520;-63
2021/05/17 20:00:26;;;;;;;3.03;2.00;;;;;;;11.30;74.30;98357.78;529655;1098;115664;-64
2021/05/17 20:10:31;;;;;;;2.10;1.97;;;;;;;11.42;74.05;98344.53;528963;1098;116078;-69
2021/05/17 20:20:36;;;;;;;3.65;2.80;;;;;;;11.34;74.02;98325.03;528844;1098;116852;-69
2021/05/17 20:30:41;;;;;;;3.40;3.10;;;;;;;11.21;74.17;98321.81;529599;1098;117522;-69
2021/05/17 20:40:48;;;;;;;4.70;3.77;;;;;;;11.01;74.55;98294.63;528889;1098;117912;-69
2021/05/17 20:50:53;;;;;;;2.50;2.30;;;;;;;10.86;75.38;98302.88;528847;1098;117744;-69
2021/05/17 21:00:58;;;;;;;3.47;2.07;;;;;;;10.91;75.10;98307.73;528932;1098;116879;-69
2021/05/17 21:11:04;;;;;;;3.27;2.67;;;;;;;10.84;75.16;98317.94;529540;1098;117530;-73
2021/05/17 21:21:10;;;;;;;2.00;1.90;;;;;;;10.78;75.08;98300.07;529691;1098;169951;-70
2021/05/17 21:31:17;;;;;;;3.13;2.23;;;;;;;10.75;75.38;98303.81;528907;1098;120237;-71
2021/05/17 21:41:22;;;;;;;3.08;2.50;;;;;;;10.69;75.29;98314.83;528924;1098;116704;-70
2021/05/17 21:51:28;;;;;;;3.97;2.77;;;;;;;10.66;75.49;98315.09;528761;1098;116963;-60
2021/05/17 22:01:33;;;;;;;2.47;2.37;;;;;;;10.54;76.23;98335.33;528951;1098;117608;-61
2021/05/17 22:11:39;;;;;;;2.93;2.63;;;;;;;10.70;76.17;98347.17;528865;1098;117430;-61
2021/05/17 22:21:45;;;;;;;4.03;2.70;;;;;;;10.68;76.05;98338.57;529697;1098;116516;-62
2021/05/17 22:31:50;;;;;;;2.77;2.57;;;;;;;10.57;76.23;98335.09;528947;1098;116218;-62
2021/05/17 22:41:56;;;;;;;2.43;2.23;;;;;;;10.44;76.73;98323.93;528988;1098;117525;-61
2021/05/17 22:52:01;;;;;;;3.17;2.87;;;;;;;10.32;77.06;98316.09;527987;1098;116144;-59
2021/05/17 23:02:07;;;;;;;3.83;3.10;;;;;;;10.17;77.88;98326.09;528928;1097;117162;-61
2021/05/17 23:12:12;;;;;;;2.63;2.25;;;;;;;10.13;77.95;98319.42;523734;1098;116029;-61
2021/05/17 23:22:24;;;;;;;3.50;3.20;;;;;;;10.14;78.09;98326.33;519262;1098;117204;-61
2021/05/17 23:32:29;;;;;;;4.15;3.70;;;;;;;10.17;78.48;98333.97;518570;1098;116697;-61
2021/05/17 23:42:33;;;;;;;5.47;3.93;;;;;;;10.12;78.55;98325.63;518588;1093;116849;-60
2021/05/17 23:52:38;;;;;;;4.00;3.60;;;;;;;10.11;78.70;98326.59;526165;1098;117318;-61
